createdAt,value
2022-12-20T00:01:12.931Z,25.30
2022-12-20T00:06:16.113Z,23.00
2022-12-20T00:11:19.373Z,20.77
2022-12-20T00:16:26.679Z,23.43
2022-12-20T00:21:30.717Z,26.07
2022-12-20T00:26:35.823Z,18.07
2022-12-20T00:31:40.505Z,20.67
2022-12-20T00:36:44.336Z,18.73
2022-12-20T00:41:47.706Z,19.87
2022-12-20T00:46:52.374Z,23.23
2022-12-20T00:51:55.995Z,26.73
2022-12-20T00:56:59.248Z,22.93
2022-12-20T01:02:04.013Z,23.30
2022-12-20T01:07:07.509Z,22.53
2022-12-20T01:12:11.383Z,24.93
2022-12-20T01:17:16.206Z,18.00
2022-12-20T01:22:19.451Z,18.80
2022-12-20T01:27:22.814Z,20.40
2022-12-20T01:32:27.402Z,17.10
2022-12-20T01:37:30.681Z,18.30
2022-12-20T01:42:34.015Z,14.13
2022-12-20T01:47:39.698Z,19.13
2022-12-20T01:52:46.295Z,16.17
2022-12-20T01:57:52.798Z,20.03
2022-12-20T02:03:02.119Z,22.30
2022-12-20T02:08:07.572Z,23.40
2022-12-20T02:13:20.489Z,22.43
2022-12-20T02:18:30.709Z,18.20
2022-12-20T02:24:08.731Z,18.67
2022-12-20T02:29:24.934Z,18.57
2022-12-20T02:34:34.481Z,20.03
2022-12-20T02:39:40.600Z,15.70
2022-12-20T02:45:06.407Z,16.27
2022-12-20T02:50:12.223Z,15.13
2022-12-20T02:55:15.906Z,25.47
2022-12-20T03:00:21.755Z,28.30
2022-12-20T03:05:29.571Z,25.90
2022-12-20T03:10:32.902Z,23.80
2022-12-20T03:15:36.205Z,18.83
2022-12-20T03:20:41.153Z,18.10
2022-12-20T03:25:44.487Z,22.70
2022-12-20T03:30:48.324Z,20.13
2022-12-20T03:35:53.043Z,19.20
2022-12-20T03:40:56.295Z,20.47
2022-12-20T03:45:59.582Z,17.00
2022-12-20T03:51:04.300Z,16.17
2022-12-20T03:56:08.032Z,18.70
2022-12-20T04:01:23.226Z,20.77
2022-12-20T04:06:29.179Z,20.57
2022-12-20T04:11:32.639Z,16.13
2022-12-20T04:16:36.243Z,14.00
2022-12-20T04:21:41.845Z,13.57
2022-12-20T04:26:45.103Z,16.13
2022-12-20T04:31:48.448Z,16.50
2022-12-20T04:36:53.086Z,11.90
2022-12-20T04:41:56.375Z,17.20
2022-12-20T04:46:59.797Z,15.03
2022-12-20T04:52:18.539Z,18.50
2022-12-20T04:57:21.778Z,14.73
2022-12-20T05:02:25.191Z,12.67
2022-12-20T05:07:30.053Z,15.57
2022-12-20T05:12:33.228Z,19.03
2022-12-20T05:17:36.423Z,11.73
2022-12-20T05:22:58.941Z,13.73
2022-12-20T05:28:02.206Z,15.73
2022-12-20T05:33:05.747Z,16.97
2022-12-20T05:38:10.418Z,13.47
2022-12-20T05:43:13.720Z,14.17
2022-12-20T05:48:17.799Z,14.43
2022-12-20T05:53:23.591Z,12.80
2022-12-20T05:58:27.001Z,15.03
2022-12-20T06:03:31.188Z,15.80
2022-12-20T06:08:36.455Z,13.90
2022-12-20T06:13:40.704Z,13.20
2022-12-20T06:18:43.997Z,11.47
2022-12-20T06:23:48.710Z,12.47
2022-12-20T06:28:54.792Z,14.87
2022-12-20T06:33:58.697Z,14.77
2022-12-20T06:39:10.325Z,12.80
2022-12-20T06:44:13.631Z,14.63
2022-12-20T06:49:17.097Z,13.77
2022-12-20T06:54:22.080Z,12.20
2022-12-20T06:59:25.349Z,11.27
2022-12-20T07:04:29.550Z,9.97
2022-12-20T07:09:34.660Z,11.83
2022-12-20T07:14:38.021Z,12.40
2022-12-20T07:19:47.044Z,11.13
2022-12-20T07:24:55.015Z,9.73
2022-12-20T07:29:58.363Z,9.90
2022-12-20T07:35:02.237Z,11.93
2022-12-20T07:40:08.358Z,9.20
2022-12-20T07:45:11.855Z,10.40
2022-12-20T07:50:15.168Z,8.87
2022-12-20T07:55:20.512Z,14.50
2022-12-20T08:00:24.244Z,15.30
2022-12-20T08:05:27.817Z,16.73
2022-12-20T08:10:33.337Z,10.33
2022-12-20T08:15:37.578Z,11.63
2022-12-20T08:20:40.891Z,10.37
2022-12-20T08:25:45.581Z,12.07
2022-12-20T08:30:51.763Z,11.57
2022-12-20T08:35:59.503Z,14.13
2022-12-20T08:41:11.081Z,13.00
2022-12-20T08:46:14.539Z,12.17
2022-12-20T08:51:17.979Z,12.27
2022-12-20T08:56:22.686Z,11.63
2022-12-20T09:01:27.199Z,9.02
2022-12-20T09:06:30.792Z,6.55
2022-12-20T09:11:35.683Z,6.43
2022-12-20T09:16:39.095Z,6.80
2022-12-20T09:21:42.552Z,7.75
2022-12-20T09:26:50.330Z,5.82
2022-12-20T09:31:55.431Z,7.38
2022-12-20T09:36:58.674Z,6.00
2022-12-20T09:42:09.365Z,9.68
2022-12-20T09:47:19.129Z,6.95
2022-12-20T09:52:54.663Z,8.80
2022-12-20T09:58:18.240Z,6.57
2022-12-20T10:03:23.654Z,5.88
2022-12-20T10:08:52.874Z,6.78
2022-12-20T10:14:09.339Z,5.25
2022-12-20T10:19:36.262Z,5.45
2022-12-20T10:24:42.387Z,6.57
2022-12-20T10:29:47.907Z,6.18
2022-12-20T10:34:56.938Z,7.97
2022-12-20T10:40:05.357Z,6.18
2022-12-20T10:45:35.671Z,9.60
2022-12-20T10:50:39.542Z,5.97
2022-12-20T10:55:44.039Z,5.32
2022-12-20T11:00:50.487Z,6.50
2022-12-20T11:05:59.433Z,5.63
2022-12-20T11:11:16.505Z,6.95
2022-12-20T11:16:35.078Z,5.47
2022-12-20T11:21:46.159Z,7.57
2022-12-20T11:27:15.908Z,5.32
2022-12-20T11:32:35.401Z,8.45
2022-12-20T11:37:47.556Z,7.47
2022-12-20T11:43:02.127Z,6.72
2022-12-20T11:48:43.551Z,5.90
2022-12-20T11:53:55.753Z,6.75
2022-12-20T11:59:04.875Z,5.90
2022-12-20T12:04:15.937Z,6.00
2022-12-20T12:09:25.047Z,5.53
2022-12-20T12:14:42.882Z,5.88
2022-12-20T12:19:51.024Z,6.10
2022-12-20T12:24:59.229Z,8.50
2022-12-20T12:30:02.399Z,6.38
2022-12-20T12:35:35.309Z,6.85
2022-12-20T12:41:07.784Z,6.10
2022-12-20T12:46:14.926Z,6.32
2022-12-20T12:51:26.515Z,8.40
2022-12-20T12:56:44.424Z,7.47
2022-12-20T13:01:50.982Z,6.63
2022-12-20T13:07:05.918Z,5.40
2022-12-20T13:12:51.449Z,4.90
2022-12-20T13:17:58.198Z,7.40
2022-12-20T13:23:17.463Z,8.63
2022-12-20T13:28:47.580Z,6.47
2022-12-20T13:33:52.851Z,6.25
2022-12-20T13:38:58.383Z,4.68
2022-12-20T13:44:11.604Z,6.43
2022-12-20T13:49:24.267Z,5.85
2022-12-20T13:54:30.147Z,5.70
2022-12-20T13:59:34.416Z,7.80
2022-12-20T14:04:44.041Z,6.30
2022-12-20T14:09:49.018Z,7.22
2022-12-20T14:14:53.164Z,6.45
2022-12-20T14:20:17.602Z,6.50
2022-12-20T14:25:29.694Z,7.90
2022-12-20T14:30:36.695Z,4.82
2022-12-20T14:35:48.365Z,6.70
2022-12-20T14:40:54.193Z,5.97
2022-12-20T14:46:24.546Z,9.63
2022-12-20T14:51:29.426Z,9.07
2022-12-20T14:56:33.514Z,6.72
2022-12-20T15:01:41.949Z,7.40
2022-12-20T15:06:49.575Z,8.27
2022-12-20T15:11:53.901Z,11.70
2022-12-20T15:16:58.096Z,9.75
2022-12-20T15:22:03.421Z,6.60
2022-12-20T15:27:13.489Z,8.53
2022-12-20T15:32:25.576Z,4.72
2022-12-20T15:37:30.283Z,10.57
2022-12-20T15:42:33.506Z,6.67
2022-12-20T15:47:36.645Z,7.85
2022-12-20T15:52:41.260Z,6.72
2022-12-20T15:57:44.627Z,9.80
2022-12-20T16:02:50.301Z,7.10
2022-12-20T16:07:56.987Z,6.30
2022-12-20T16:13:00.320Z,6.23
2022-12-20T16:18:03.507Z,6.25
2022-12-20T16:23:16.984Z,8.07
2022-12-20T16:28:20.304Z,11.70
2022-12-20T16:33:23.823Z,7.07
2022-12-20T16:38:29.505Z,13.60
2022-12-20T16:43:38.609Z,7.43
2022-12-20T16:48:42.811Z,8.95
2022-12-20T16:54:17.342Z,9.63
2022-12-20T16:59:21.475Z,8.37
2022-12-20T17:04:26.942Z,6.63
2022-12-20T17:09:31.708Z,7.63
2022-12-20T17:14:34.924Z,10.00
2022-12-20T17:19:41.692Z,8.27
2022-12-20T17:24:46.691Z,7.00
2022-12-20T17:29:50.891Z,9.00
2022-12-20T17:34:55.337Z,11.00
2022-12-20T17:40:00.046Z,9.30
2022-12-20T17:45:03.575Z,10.33
2022-12-20T17:50:08.126Z,12.33
2022-12-20T17:55:21.354Z,8.10
2022-12-20T18:00:31.967Z,10.10
2022-12-20T18:05:42.135Z,8.70
2022-12-20T18:10:48.695Z,11.73
2022-12-20T18:15:52.287Z,14.23
2022-12-20T18:21:04.916Z,12.97
2022-12-20T18:26:12.747Z,11.48
2022-12-20T18:31:17.918Z,16.37
2022-12-20T18:36:24.818Z,17.03
2022-12-20T18:41:31.330Z,16.33
2022-12-20T18:46:34.955Z,15.43
2022-12-20T18:51:38.315Z,13.50
2022-12-20T18:56:42.989Z,14.60
2022-12-20T19:01:46.328Z,12.73
2022-12-20T19:06:49.633Z,13.17
2022-12-20T19:11:57.344Z,10.82
2022-12-20T19:17:01.249Z,8.90
2022-12-20T19:22:05.028Z,7.45
2022-12-20T19:27:11.196Z,11.97
2022-12-20T19:32:20.247Z,12.87
2022-12-20T19:37:37.109Z,15.73
2022-12-20T19:42:44.649Z,14.90
2022-12-20T19:47:47.950Z,12.67
2022-12-20T19:52:53.131Z,11.70
2022-12-20T19:57:57.874Z,10.33
2022-12-20T20:03:01.450Z,16.03
2022-12-20T20:08:05.044Z,9.07
2022-12-20T20:13:09.780Z,12.77
2022-12-20T20:18:13.228Z,11.50
2022-12-20T20:23:17.561Z,12.00
2022-12-20T20:28:28.017Z,11.67
2022-12-20T20:33:34.636Z,8.83
2022-12-20T20:38:38.032Z,11.77
2022-12-20T20:43:43.251Z,11.27
2022-12-20T20:48:46.796Z,16.43
2022-12-20T20:53:49.964Z,10.40
2022-12-20T20:58:56.500Z,15.20
2022-12-20T21:04:05.283Z,12.33
2022-12-20T21:09:08.656Z,12.80
2022-12-20T21:14:13.423Z,12.17
2022-12-20T21:19:17.166Z,21.03
2022-12-20T21:24:22.320Z,17.87
2022-12-20T21:29:27.178Z,14.32
2022-12-20T21:34:30.535Z,17.70
2022-12-20T21:39:34.148Z,28.07
2022-12-20T21:44:39.062Z,21.43
2022-12-20T21:49:42.428Z,16.70
2022-12-20T21:54:45.733Z,14.50
2022-12-20T21:59:50.416Z,15.33
2022-12-20T22:04:53.815Z,14.80
2022-12-20T22:09:57.125Z,15.63
2022-12-20T22:15:01.777Z,14.27
2022-12-20T22:20:05.682Z,14.27
2022-12-20T22:25:09.865Z,12.87
2022-12-20T22:30:14.891Z,10.13
2022-12-20T22:35:22.757Z,12.10
2022-12-20T22:40:26.372Z,12.13
2022-12-20T22:45:31.196Z,13.87
2022-12-20T22:50:34.483Z,16.73
2022-12-20T22:55:37.827Z,13.50
2022-12-20T23:00:42.400Z,12.55
2022-12-20T23:05:53.873Z,11.43
2022-12-20T23:11:14.713Z,13.13
2022-12-20T23:16:19.608Z,12.80
2022-12-20T23:21:40.356Z,11.77
2022-12-20T23:26:44.795Z,10.70
2022-12-20T23:31:49.434Z,9.47
2022-12-20T23:36:52.729Z,8.50
2022-12-20T23:41:57.216Z,8.13
2022-12-20T23:47:01.802Z,14.30
2022-12-20T23:52:05.370Z,10.63
2022-12-20T23:57:08.901Z,7.50
